Time;durP1;ratioP1;P1;durP2;ratioP2;P2;SDS_P1;SDS_P2;PMS_P1;PMS_P2;Temp;Humidity;BMP_temperature;BMP_pressure;BME280_temperature;BME280_humidity;BME280_pressure;Samples;Min_cycle;Max_cycle;Signal;HPM_P1;HPM_P2
2022/02/05 00:00:06;;;;;;;20.75;10.65;;;;;;;;;;6004549;29;20085;-73
2022/02/05 00:03:13;;;;;;;21.75;10.73;;;;;;;;;;6003925;29;20050;-73
2022/02/05 00:06:21;;;;;;;20.83;10.60;;;;;;;;;;6004028;29;20065;-74
2022/02/05 00:09:40;;;;;;;21.02;11.35;;;;;;;;;;6004229;29;20509;-74
2022/02/05 00:12:55;;;;;;;22.38;10.88;;;;;;;;;;6004791;29;20050;-74
2022/02/05 00:19:41;;;;;;;25.77;11.48;;;;;;;;;;6003861;29;20077;-74
2022/02/05 00:33:19;;;;;;;26.13;12.38;;;;;;;;;;6003856;29;20053;-74
2022/02/05 00:40:05;;;;;;;18.67;11.35;;;;;;;;;;6003084;29;20397;-73
2022/02/05 00:43:08;;;;;;;24.08;11.73;;;;;;;;;;6001644;29;20046;-74
2022/02/05 00:46:13;;;;;;;23.38;11.63;;;;;;;;;;6002249;29;20050;-73
2022/02/05 00:49:17;;;;;;;23.90;12.73;;;;;;;;;;6000911;29;20494;-73
2022/02/05 00:52:21;;;;;;;25.25;12.55;;;;;;;;;;6004003;29;20057;-74
2022/02/05 00:55:28;;;;;;;24.02;13.02;;;;;;;;;;6005100;29;20046;-74
2022/02/05 00:58:31;;;;;;;26.38;12.65;;;;;;;;;;6003383;29;20060;-74
2022/02/05 01:01:34;;;;;;;19.55;11.50;;;;;;;;;;6005176;29;20069;-74
2022/02/05 01:04:37;;;;;;;22.88;11.63;;;;;;;;;;6005441;29;20490;-74
2022/02/05 01:07:42;;;;;;;24.67;11.68;;;;;;;;;;6004353;29;20516;-75
2022/02/05 01:10:45;;;;;;;24.30;11.68;;;;;;;;;;6006171;29;20054;-75
2022/02/05 01:13:48;;;;;;;21.27;11.45;;;;;;;;;;6009470;29;20330;-74
2022/02/05 01:16:56;;;;;;;21.40;11.52;;;;;;;;;;6007260;29;20469;-74
2022/02/05 01:23:32;;;;;;;25.33;12.13;;;;;;;;;;6007844;29;20124;-74
2022/02/05 01:26:40;;;;;;;24.38;11.77;;;;;;;;;;6008039;29;20046;-74
2022/02/05 01:29:59;;;;;;;20.48;11.63;;;;;;;;;;6008295;29;20070;-74
2022/02/05 01:33:16;;;;;;;21.55;11.93;;;;;;;;;;6007007;29;20064;-74
2022/02/05 01:39:20;;;;;;;30.35;13.25;;;;;;;;;;6008676;29;20058;-75
2022/02/05 01:53:31;;;;;;;21.65;11.38;;;;;;;;;;6007732;29;20062;-74
2022/02/05 01:56:44;;;;;;;21.05;11.20;;;;;;;;;;6007111;29;20054;-74
2022/02/05 02:04:41;;;;;;;25.85;11.43;;;;;;;;;;6006106;29;20455;-74
2022/02/05 02:06:59;;;;;;;23.98;12.15;;;;;;;;;;6006719;29;20050;-74
2022/02/05 02:10:15;;;;;;;25.67;12.52;;;;;;;;;;6005852;29;20061;-74
2022/02/05 02:17:01;;;;;;;25.15;12.10;;;;;;;;;;6004675;29;20120;-74
2022/02/05 02:20:21;;;;;;;23.35;11.52;;;;;;;;;;6005716;29;20826;-74
2022/02/05 02:23:41;;;;;;;25.30;12.73;;;;;;;;;;6006610;29;20064;-73
2022/02/05 02:27:00;;;;;;;23.45;12.07;;;;;;;;;;6007424;29;20053;-74
2022/02/05 02:30:12;;;;;;;19.48;11.05;;;;;;;;;;6004921;29;20208;-74
2022/02/05 02:33:23;;;;;;;22.13;10.50;;;;;;;;;;6004595;29;20042;-74
2022/02/05 02:36:34;;;;;;;24.27;11.75;;;;;;;;;;6003730;29;20061;-74
2022/02/05 02:39:53;;;;;;;20.95;11.57;;;;;;;;;;6003313;29;20429;-74
2022/02/05 02:43:03;;;;;;;20.48;11.23;;;;;;;;;;6004429;29;20054;-74
2022/02/05 02:46:06;;;;;;;24.67;11.88;;;;;;;;;;6004308;29;20082;-74
2022/02/05 02:49:14;;;;;;;25.00;12.75;;;;;;;;;;6006085;29;20060;-74
2022/02/05 02:59:07;;;;;;;24.52;11.00;;;;;;;;;;6006563;29;20046;-74
2022/02/05 03:02:12;;;;;;;23.33;11.40;;;;;;;;;;6007442;29;20050;-75
2022/02/05 03:05:16;;;;;;;25.52;12.40;;;;;;;;;;6006242;29;20058;-74
2022/02/05 03:08:19;;;;;;;21.48;10.95;;;;;;;;;;6004714;29;20122;-75
2022/02/05 03:11:23;;;;;;;21.38;11.35;;;;;;;;;;6006681;29;20045;-75
2022/02/05 03:14:26;;;;;;;19.15;10.77;;;;;;;;;;6005252;29;20458;-75
2022/02/05 03:17:37;;;;;;;23.48;11.15;;;;;;;;;;6004459;29;20048;-74
2022/02/05 03:20:40;;;;;;;22.77;10.70;;;;;;;;;;6005055;29;20049;-74
2022/02/05 03:23:43;;;;;;;25.85;11.38;;;;;;;;;;6005285;29;20082;-74
2022/02/05 03:26:48;;;;;;;19.27;10.55;;;;;;;;;;6004359;29;20454;-74
2022/02/05 03:29:52;;;;;;;18.73;10.48;;;;;;;;;;6004648;29;20520;-74
2022/02/05 03:32:56;;;;;;;20.92;10.77;;;;;;;;;;6004193;29;20185;-74
2022/02/05 03:35:59;;;;;;;19.10;9.75;;;;;;;;;;6005892;29;20485;-74
2022/02/05 03:39:04;;;;;;;21.60;10.10;;;;;;;;;;6006084;29;20046;-74
2022/02/05 03:42:10;;;;;;;16.77;8.98;;;;;;;;;;6004733;29;20054;-74
2022/02/05 03:45:14;;;;;;;19.35;9.45;;;;;;;;;;6006203;29;20182;-74
2022/02/05 03:48:20;;;;;;;17.98;9.40;;;;;;;;;;6004079;29;20405;-74
2022/02/05 03:51:24;;;;;;;20.83;9.98;;;;;;;;;;6004310;29;20046;-75
2022/02/05 03:54:30;;;;;;;20.23;9.90;;;;;;;;;;6006092;29;20142;-74
2022/02/05 03:57:35;;;;;;;20.73;9.60;;;;;;;;;;6004177;29;20178;-74
2022/02/05 04:00:39;;;;;;;18.50;9.93;;;;;;;;;;6004187;29;20050;-73
2022/02/05 04:03:42;;;;;;;20.52;9.80;;;;;;;;;;6004450;29;20141;-74
2022/02/05 04:06:47;;;;;;;18.48;10.55;;;;;;;;;;6005938;29;20057;-74
2022/02/05 04:09:58;;;;;;;18.85;10.18;;;;;;;;;;6003697;29;20122;-74
2022/02/05 04:16:23;;;;;;;20.27;9.27;;;;;;;;;;6004426;29;20060;-75
2022/02/05 04:19:28;;;;;;;21.40;10.03;;;;;;;;;;6004652;29;20061;-76
2022/02/05 04:22:31;;;;;;;19.55;8.70;;;;;;;;;;6005043;29;20133;-75
2022/02/05 04:25:34;;;;;;;21.23;10.85;;;;;;;;;;6005414;29;20417;-75
2022/02/05 04:28:41;;;;;;;18.58;9.80;;;;;;;;;;6004487;29;20504;-76
2022/02/05 04:31:44;;;;;;;19.58;10.38;;;;;;;;;;6004980;29;20050;-76
2022/02/05 04:34:47;;;;;;;19.00;10.30;;;;;;;;;;6005198;29;20050;-76
2022/02/05 04:37:52;;;;;;;18.27;9.15;;;;;;;;;;6005723;29;20054;-75
2022/02/05 04:41:02;;;;;;;16.90;8.98;;;;;;;;;;6003736;29;20069;-75
2022/02/05 04:44:19;;;;;;;19.90;9.02;;;;;;;;;;6005647;29;20451;-75
2022/02/05 04:47:51;;;;;;;17.08;8.63;;;;;;;;;;6008493;29;20054;-75
2022/02/05 04:58:04;;;;;;;19.05;8.55;;;;;;;;;;6393476;27;20489;-75
2022/02/05 05:01:17;;;;;;;21.45;8.85;;;;;;;;;;6392069;27;20047;-75
2022/02/05 05:04:30;;;;;;;18.05;8.90;;;;;;;;;;6393477;27;20175;-75
2022/02/05 05:07:54;;;;;;;17.20;9.32;;;;;;;;;;6392285;27;20043;-75
2022/02/05 05:11:26;;;;;;;15.15;7.88;;;;;;;;;;6393058;27;20418;-75
2022/02/05 05:21:13;;;;;;;23.45;9.65;;;;;;;;;;6391233;27;20073;-75
2022/02/05 05:24:16;;;;;;;15.13;9.18;;;;;;;;;;6391068;27;20060;-74
2022/02/05 05:27:19;;;;;;;18.52;9.52;;;;;;;;;;6391675;27;20046;-73
2022/02/05 05:30:26;;;;;;;20.35;11.02;;;;;;;;;;6392904;27;20054;-74
2022/02/05 05:33:29;;;;;;;19.13;11.73;;;;;;;;;;6391914;27;20161;-74
2022/02/05 05:36:35;;;;;;;16.85;8.93;;;;;;;;;;6391203;27;20066;-74
2022/02/05 05:39:40;;;;;;;14.02;8.05;;;;;;;;;;6391293;27;20050;-74
2022/02/05 05:42:52;;;;;;;14.30;8.38;;;;;;;;;;6390555;27;20039;-74
2022/02/05 05:46:15;;;;;;;16.95;8.77;;;;;;;;;;6391933;27;20042;-73
2022/02/05 05:49:20;;;;;;;14.35;8.27;;;;;;;;;;6392422;27;20117;-74
2022/02/05 05:52:24;;;;;;;20.80;8.77;;;;;;;;;;6392343;27;20485;-74
2022/02/05 05:55:27;;;;;;;15.07;7.85;;;;;;;;;;6389436;27;20176;-73
2022/02/05 05:58:30;;;;;;;13.35;8.00;;;;;;;;;;6390188;27;20063;-74
2022/02/05 06:01:39;;;;;;;14.55;8.48;;;;;;;;;;6390901;27;20047;-74
2022/02/05 06:04:42;;;;;;;14.52;7.90;;;;;;;;;;6391616;27;20046;-74
2022/02/05 06:07:45;;;;;;;14.07;7.22;;;;;;;;;;6380487;27;20117;-73
2022/02/05 06:10:50;;;;;;;14.98;7.65;;;;;;;;;;6373391;27;20050;-73
2022/02/05 06:13:53;;;;;;;15.05;8.27;;;;;;;;;;6374610;27;20047;-73
2022/02/05 06:17:03;;;;;;;14.48;7.55;;;;;;;;;;6372715;27;20085;-73
2022/02/05 06:20:07;;;;;;;15.23;8.13;;;;;;;;;;6374479;27;20188;-74
2022/02/05 06:23:12;;;;;;;15.43;7.28;;;;;;;;;;6373634;27;20370;-73
2022/02/05 06:26:15;;;;;;;20.58;7.97;;;;;;;;;;6372792;27;20042;-74
2022/02/05 06:29:18;;;;;;;12.75;7.30;;;;;;;;;;6372615;27;20096;-74
2022/02/05 06:32:22;;;;;;;15.75;8.15;;;;;;;;;;6373305;27;20043;-74
2022/02/05 06:35:25;;;;;;;15.23;7.53;;;;;;;;;;6372660;27;20035;-74
2022/02/05 06:38:28;;;;;;;13.15;7.07;;;;;;;;;;6372760;27;20047;-74
2022/02/05 06:41:31;;;;;;;11.10;6.03;;;;;;;;;;6373857;27;20039;-74
2022/02/05 06:44:36;;;;;;;14.25;7.25;;;;;;;;;;6373223;27;20045;-73
2022/02/05 06:47:41;;;;;;;13.38;7.22;;;;;;;;;;6371440;27;20046;-73
2022/02/05 06:50:44;;;;;;;13.57;6.88;;;;;;;;;;6372039;27;20046;-73
2022/02/05 06:53:47;;;;;;;15.93;7.25;;;;;;;;;;6372323;27;20045;-73
2022/02/05 06:56:50;;;;;;;12.60;6.65;;;;;;;;;;6371532;27;20156;-73
2022/02/05 06:59:53;;;;;;;10.40;6.38;;;;;;;;;;6372738;27;20043;-73
2022/02/05 07:03:00;;;;;;;11.80;6.22;;;;;;;;;;6372363;27;20043;-72
2022/02/05 07:06:05;;;;;;;12.57;7.03;;;;;;;;;;6372770;27;20508;-73
2022/02/05 07:09:08;;;;;;;14.18;7.53;;;;;;;;;;6370610;27;20317;-72
2022/02/05 07:12:12;;;;;;;13.02;6.32;;;;;;;;;;6371809;27;20240;-73
2022/02/05 07:15:22;;;;;;;;;;;;;;;;;;6373739;27;20043;-73
2022/02/05 07:18:35;;;;;;;9.00;4.95;;;;;;;;;;6372066;27;19926;-73
2022/02/05 07:21:42;;;;;;;5.97;4.00;;;;;;;;;;6370684;27;20100;-74
2022/02/05 07:31:28;;;;;;;6.40;3.83;;;;;;;;;;6371097;27;20095;-74
2022/02/05 07:34:35;;;;;;;5.78;3.38;;;;;;;;;;6370451;27;20397;-74
2022/02/05 07:37:38;;;;;;;4.68;2.80;;;;;;;;;;6372740;27;20530;-75
2022/02/05 07:40:41;;;;;;;5.93;3.47;;;;;;;;;;6371374;27;20068;-75
2022/02/05 07:43:46;;;;;;;6.82;3.10;;;;;;;;;;6369992;27;20043;-75
2022/02/05 07:46:51;;;;;;;4.65;2.97;;;;;;;;;;6372222;27;20050;-74
2022/02/05 07:49:56;;;;;;;4.23;2.83;;;;;;;;;;6372957;27;20047;-75
2022/02/05 07:52:58;;;;;;;7.93;3.40;;;;;;;;;;6370173;27;20146;-75
2022/02/05 07:56:02;;;;;;;4.60;2.92;;;;;;;;;;6369842;27;20055;-74
2022/02/05 07:59:05;;;;;;;5.80;2.83;;;;;;;;;;6371901;27;20493;-75
2022/02/05 08:02:10;;;;;;;4.65;2.63;;;;;;;;;;6372535;27;20039;-75
2022/02/05 08:05:14;;;;;;;5.03;2.67;;;;;;;;;;6370801;27;20176;-73
2022/02/05 08:08:22;;;;;;;6.60;2.93;;;;;;;;;;6371885;27;20039;-75
2022/02/05 08:11:35;;;;;;;3.45;2.53;;;;;;;;;;6370587;27;20130;-75
2022/02/05 08:14:43;;;;;;;5.05;3.10;;;;;;;;;;6369893;27;20088;-75
2022/02/05 08:17:46;;;;;;;3.85;2.53;;;;;;;;;;6370994;27;20051;-76
2022/02/05 08:20:51;;;;;;;5.80;2.83;;;;;;;;;;6370183;27;20119;-75
2022/02/05 08:23:54;;;;;;;5.15;3.00;;;;;;;;;;6371588;27;20043;-75
2022/02/05 08:26:57;;;;;;;5.18;2.72;;;;;;;;;;6370249;27;20043;-74
2022/02/05 08:30:05;;;;;;;4.35;2.90;;;;;;;;;;6371010;27;20047;-74
2022/02/05 08:33:11;;;;;;;4.40;2.70;;;;;;;;;;6371594;27;20050;-75
2022/02/05 08:36:17;;;;;;;6.10;3.22;;;;;;;;;;6370616;27;20126;-74
2022/02/05 08:39:21;;;;;;;4.30;2.50;;;;;;;;;;6370774;27;20550;-74
2022/02/05 08:42:27;;;;;;;3.60;2.38;;;;;;;;;;6371079;27;20516;-75
2022/02/05 08:45:30;;;;;;;4.45;2.40;;;;;;;;;;6371152;27;20043;-76
2022/02/05 08:48:34;;;;;;;2.80;2.30;;;;;;;;;;6369653;27;20122;-76
2022/02/05 08:51:39;;;;;;;4.75;2.20;;;;;;;;;;6369930;27;20047;-75
2022/02/05 08:54:42;;;;;;;2.53;1.90;;;;;;;;;;6369599;28;20047;-76
2022/02/05 08:57:45;;;;;;;4.65;2.22;;;;;;;;;;6368543;28;20039;-74
2022/02/05 09:00:52;;;;;;;3.08;2.08;;;;;;;;;;6370658;27;20049;-74
2022/02/05 09:04:02;;;;;;;2.53;1.65;;;;;;;;;;6369772;28;20504;-75
2022/02/05 09:07:06;;;;;;;1.55;1.42;;;;;;;;;;6370887;27;20043;-77
2022/02/05 09:10:26;;;;;;;2.15;1.15;;;;;;;;;;6368376;28;20047;-74
2022/02/05 09:16:52;;;;;;;1.13;1.08;;;;;;;;;;6366536;28;20485;-73
2022/02/05 09:19:55;;;;;;;0.95;0.75;;;;;;;;;;6365913;28;20440;-72
2022/02/05 09:23:02;;;;;;;2.47;0.65;;;;;;;;;;6368932;27;20496;-73
2022/02/05 09:26:05;;;;;;;0.95;0.45;;;;;;;;;;6368389;28;20428;-72
2022/02/05 09:29:14;;;;;;;1.05;0.55;;;;;;;;;;6369585;28;20035;-72
2022/02/05 09:32:19;;;;;;;1.20;0.60;;;;;;;;;;6365732;28;20155;-75
2022/02/05 09:35:22;;;;;;;1.95;0.50;;;;;;;;;;6367443;27;20039;-73
2022/02/05 09:38:28;;;;;;;4.22;1.77;;;;;;;;;;6366384;28;20075;-74
2022/02/05 09:41:31;;;;;;;4.38;0.90;;;;;;;;;;6365728;27;20039;-73
2022/02/05 09:44:34;;;;;;;1.02;0.50;;;;;;;;;;6371750;27;20557;-74
2022/02/05 09:47:40;;;;;;;3.35;0.80;;;;;;;;;;6371976;27;20043;-74
2022/02/05 09:50:44;;;;;;;1.65;0.47;;;;;;;;;;6372230;27;20047;-74
2022/02/05 09:53:50;;;;;;;3.05;0.47;;;;;;;;;;6371966;27;20074;-74
2022/02/05 09:56:53;;;;;;;2.53;0.52;;;;;;;;;;6373626;27;20266;-74
2022/02/05 10:00:00;;;;;;;1.70;0.45;;;;;;;;;;6373693;27;20053;-78
2022/02/05 10:03:22;;;;;;;1.13;0.50;;;;;;;;;;6373104;27;20070;-76
2022/02/05 10:06:28;;;;;;;3.22;0.60;;;;;;;;;;6372461;27;20073;-75
2022/02/05 10:09:33;;;;;;;5.28;1.15;;;;;;;;;;6374744;27;20035;-76
2022/02/05 10:12:37;;;;;;;1.95;0.80;;;;;;;;;;6373328;27;20050;-76
2022/02/05 10:15:42;;;;;;;1.30;0.50;;;;;;;;;;6371970;27;20046;-73
2022/02/05 10:18:45;;;;;;;3.88;1.13;;;;;;;;;;6374245;27;20082;-74
2022/02/05 10:22:00;;;;;;;1.17;0.50;;;;;;;;;;6373078;27;20509;-74
2022/02/05 10:25:14;;;;;;;2.13;0.43;;;;;;;;;;6374346;27;20039;-77
2022/02/05 10:28:18;;;;;;;2.78;0.50;;;;;;;;;;6371928;27;20047;-77
2022/02/05 10:31:23;;;;;;;2.60;0.60;;;;;;;;;;6374248;27;20062;-76
2022/02/05 10:34:27;;;;;;;3.08;0.60;;;;;;;;;;6374239;27;20046;-75
2022/02/05 10:37:35;;;;;;;1.42;0.70;;;;;;;;;;6371801;27;20043;-75
2022/02/05 10:40:45;;;;;;;3.45;0.70;;;;;;;;;;6373543;27;20054;-74
2022/02/05 10:43:47;;;;;;;1.50;0.47;;;;;;;;;;6373912;27;20064;-74
2022/02/05 10:46:52;;;;;;;4.45;0.73;;;;;;;;;;6374056;27;20039;-74
2022/02/05 10:49:57;;;;;;;3.22;0.60;;;;;;;;;;6371358;27;20039;-73
2022/02/05 10:53:04;;;;;;;1.50;0.70;;;;;;;;;;6374005;27;20119;-73
2022/02/05 10:56:13;;;;;;;3.38;0.75;;;;;;;;;;6371900;27;20055;-73
2022/02/05 10:59:34;;;;;;;2.88;0.80;;;;;;;;;;6369529;27;20043;-74
2022/02/05 11:06:01;;;;;;;3.03;0.50;;;;;;;;;;6370909;27;20505;-73
2022/02/05 11:09:04;;;;;;;1.33;0.68;;;;;;;;;;6371928;27;20043;-72
2022/02/05 11:12:48;;;;;;;2.22;0.77;;;;;;;;;;6368675;27;20125;-73
2022/02/05 11:19:09;;;;;;;0.65;0.47;;;;;;;;;;6371522;27;20477;-73
2022/02/05 11:22:31;;;;;;;0.68;0.38;;;;;;;;;;6371169;27;20043;-74
2022/02/05 11:25:37;;;;;;;2.40;0.57;;;;;;;;;;6369448;27;20071;-73
2022/02/05 11:28:45;;;;;;;0.98;0.60;;;;;;;;;;6370727;27;20545;-72
2022/02/05 11:31:55;;;;;;;2.22;1.27;;;;;;;;;;6370142;27;20118;-72
2022/02/05 11:35:28;;;;;;;3.88;0.88;;;;;;;;;;6370124;27;20043;-72
2022/02/05 11:38:32;;;;;;;2.35;0.80;;;;;;;;;;6368821;27;20176;-72
2022/02/05 11:41:37;;;;;;;2.40;0.77;;;;;;;;;;6370292;27;20066;-73
2022/02/05 11:44:44;;;;;;;1.40;0.80;;;;;;;;;;6369825;27;20538;-73
2022/02/05 11:47:47;;;;;;;4.53;0.80;;;;;;;;;;6369635;27;20047;-72
2022/02/05 11:51:05;;;;;;;3.03;0.90;;;;;;;;;;6369138;27;20049;-73
2022/02/05 11:54:14;;;;;;;3.90;0.88;;;;;;;;;;6369711;27;20057;-75
2022/02/05 11:57:18;;;;;;;4.85;1.65;;;;;;;;;;6369238;27;20074;-75
2022/02/05 12:00:30;;;;;;;4.80;1.30;;;;;;;;;;6368742;27;20046;-75
2022/02/05 12:03:36;;;;;;;3.22;0.90;;;;;;;;;;6369216;27;20057;-75
2022/02/05 12:06:48;;;;;;;5.05;1.48;;;;;;;;;;6368749;27;20051;-75
2022/02/05 12:09:51;;;;;;;4.88;1.40;;;;;;;;;;6370607;27;20039;-74
2022/02/05 12:13:13;;;;;;;4.18;1.38;;;;;;;;;;6368917;27;20043;-74
2022/02/05 12:16:21;;;;;;;3.55;0.93;;;;;;;;;;6367868;27;20447;-75
2022/02/05 12:19:27;;;;;;;3.63;1.10;;;;;;;;;;6368863;27;20043;-73
2022/02/05 12:22:52;;;;;;;3.03;1.33;;;;;;;;;;6370260;27;20122;-75
2022/02/05 12:26:14;;;;;;;1.15;1.00;;;;;;;;;;6367385;27;20558;-75
2022/02/05 12:29:27;;;;;;;1.42;1.00;;;;;;;;;;6367775;27;20105;-75
2022/02/05 12:32:32;;;;;;;1.30;0.88;;;;;;;;;;6370106;27;20059;-75
2022/02/05 12:35:35;;;;;;;2.58;1.00;;;;;;;;;;6368737;27;20051;-74
2022/02/05 12:38:38;;;;;;;2.33;0.90;;;;;;;;;;6367970;27;20405;-75
2022/02/05 12:41:47;;;;;;;2.20;1.05;;;;;;;;;;6369827;27;20047;-75
2022/02/05 12:44:51;;;;;;;1.63;1.00;;;;;;;;;;6368602;27;20054;-74
2022/02/05 12:47:55;;;;;;;2.30;0.70;;;;;;;;;;6368849;27;20042;-74
2022/02/05 12:50:59;;;;;;;2.97;0.90;;;;;;;;;;6368898;27;20047;-74
2022/02/05 12:54:06;;;;;;;1.40;0.80;;;;;;;;;;6368487;27;20046;-74
2022/02/05 12:57:15;;;;;;;1.65;0.98;;;;;;;;;;6368132;27;20062;-74
2022/02/05 13:00:20;;;;;;;4.18;1.10;;;;;;;;;;6365337;28;20122;-73
2022/02/05 13:03:26;;;;;;;2.83;0.90;;;;;;;;;;6367363;27;20039;-74
2022/02/05 13:06:32;;;;;;;2.45;1.10;;;;;;;;;;6366437;28;20367;-74
2022/02/05 13:09:38;;;;;;;1.17;0.88;;;;;;;;;;6367228;27;20050;-74
2022/02/05 13:12:43;;;;;;;5.18;1.08;;;;;;;;;;6365562;28;20434;-74
2022/02/05 13:15:52;;;;;;;3.10;0.87;;;;;;;;;;6367597;27;20047;-74
2022/02/05 13:19:06;;;;;;;5.82;1.02;;;;;;;;;;6371632;27;20393;-74
2022/02/05 13:29:18;;;;;;;2.42;1.23;;;;;;;;;;6372453;27;20051;-75
2022/02/05 13:36:01;;;;;;;3.28;1.00;;;;;;;;;;6370608;27;20473;-74
2022/02/05 13:39:12;;;;;;;2.65;0.90;;;;;;;;;;6371604;27;20039;-74
2022/02/05 13:42:20;;;;;;;1.70;0.95;;;;;;;;;;6370505;27;20050;-76
2022/02/05 13:45:32;;;;;;;1.58;0.98;;;;;;;;;;6371081;27;20047;-74
2022/02/05 13:48:36;;;;;;;4.72;1.00;;;;;;;;;;6369988;27;20401;-73
2022/02/05 13:51:41;;;;;;;3.57;1.00;;;;;;;;;;6371229;27;20054;-73
2022/02/05 13:54:45;;;;;;;2.78;1.27;;;;;;;;;;6370516;27;20035;-74
2022/02/05 13:57:55;;;;;;;4.30;0.98;;;;;;;;;;6371539;27;20091;-75
2022/02/05 14:01:02;;;;;;;3.92;0.93;;;;;;;;;;6369034;27;20091;-74
2022/02/05 14:04:12;;;;;;;2.83;1.02;;;;;;;;;;6371462;27;20047;-74
2022/02/05 14:07:20;;;;;;;5.10;1.02;;;;;;;;;;6370443;27;20413;-73
2022/02/05 14:10:24;;;;;;;1.63;0.80;;;;;;;;;;6369716;27;20039;-73
2022/02/05 14:13:28;;;;;;;2.35;0.70;;;;;;;;;;6370796;27;20454;-74
2022/02/05 14:16:31;;;;;;;1.50;1.00;;;;;;;;;;6371322;27;20047;-74
2022/02/05 14:19:35;;;;;;;3.17;0.88;;;;;;;;;;6370305;27;20054;-73
2022/02/05 14:22:43;;;;;;;1.00;0.80;;;;;;;;;;6368718;27;20039;-74
2022/02/05 14:25:48;;;;;;;3.78;0.70;;;;;;;;;;6369448;27;20043;-73
2022/02/05 14:28:57;;;;;;;1.90;1.00;;;;;;;;;;6369369;27;20043;-73
2022/02/05 14:32:08;;;;;;;1.02;0.88;;;;;;;;;;6369180;27;20043;-74
2022/02/05 14:35:28;;;;;;;1.30;0.70;;;;;;;;;;6370561;27;20043;-74
2022/02/05 14:41:55;;;;;;;2.65;0.75;;;;;;;;;;6371124;27;20481;-74
2022/02/05 14:45:02;;;;;;;1.70;0.82;;;;;;;;;;6368788;27;20088;-76
2022/02/05 14:48:05;;;;;;;5.05;1.00;;;;;;;;;;6368650;27;20572;-77
2022/02/05 14:51:09;;;;;;;1.33;0.90;;;;;;;;;;6369300;27;20050;-80
2022/02/05 14:54:14;;;;;;;1.50;1.02;;;;;;;;;;6366721;27;20114;-80
2022/02/05 14:57:21;;;;;;;2.08;1.02;;;;;;;;;;6367417;27;20059;-80
2022/02/05 15:00:25;;;;;;;3.63;1.00;;;;;;;;;;6368037;27;20047;-79
2022/02/05 15:03:30;;;;;;;4.28;1.00;;;;;;;;;;6369859;27;20050;-79
2022/02/05 15:06:35;;;;;;;1.83;1.00;;;;;;;;;;6369391;27;20541;-80
2022/02/05 15:09:42;;;;;;;1.83;1.00;;;;;;;;;;6367639;27;20039;-77
2022/02/05 15:12:45;;;;;;;4.97;1.00;;;;;;;;;;6367182;27;20043;-77
2022/02/05 15:15:53;;;;;;;3.13;0.98;;;;;;;;;;6366003;27;20051;-78
2022/02/05 15:18:58;;;;;;;3.80;0.80;;;;;;;;;;6366662;27;20508;-77
2022/02/05 15:22:04;;;;;;;4.22;0.88;;;;;;;;;;6365846;27;20118;-77
2022/02/05 15:25:11;;;;;;;2.85;0.90;;;;;;;;;;6369171;27;20046;-79
2022/02/05 15:28:15;;;;;;;2.00;0.93;;;;;;;;;;6369054;27;20058;-78
2022/02/05 15:31:18;;;;;;;2.42;1.13;;;;;;;;;;6367899;27;20042;-82
2022/02/05 15:34:25;;;;;;;4.30;1.30;;;;;;;;;;6368584;27;20121;-80
2022/02/05 15:37:28;;;;;;;2.95;1.13;;;;;;;;;;6367887;27;20066;-80
2022/02/05 15:43:56;;;;;;;3.55;1.13;;;;;;;;;;6367801;27;20504;-81
2022/02/05 15:47:00;;;;;;;3.92;1.30;;;;;;;;;;6369278;27;20086;-78
2022/02/05 15:50:03;;;;;;;3.05;1.40;;;;;;;;;;6366840;27;20567;-79
2022/02/05 15:53:09;;;;;;;5.20;1.85;;;;;;;;;;6368213;27;20051;-79
2022/02/05 15:56:32;;;;;;;4.07;1.67;;;;;;;;;;6352265;27;20497;-80
2022/02/05 15:59:54;;;;;;;2.65;1.58;;;;;;;;;;6367730;27;20047;-78
2022/02/05 16:03:00;;;;;;;4.93;1.73;;;;;;;;;;6368444;27;20122;-81
2022/02/05 16:06:03;;;;;;;3.50;1.70;;;;;;;;;;6368312;27;20051;-81
2022/02/05 16:09:06;;;;;;;2.80;1.25;;;;;;;;;;6367589;27;20473;-81
2022/02/05 16:12:12;;;;;;;4.03;1.60;;;;;;;;;;6368471;27;20039;-80
2022/02/05 16:15:16;;;;;;;5.43;1.83;;;;;;;;;;6366531;27;20050;-80
2022/02/05 16:18:21;;;;;;;3.78;1.58;;;;;;;;;;6368374;27;20478;-79
2022/02/05 16:21:24;;;;;;;4.00;1.60;;;;;;;;;;6367473;27;20397;-80
2022/02/05 16:24:30;;;;;;;;;;;;;;;;;;6366782;27;20069;-80
2022/02/05 16:27:37;;;;;;;3.58;1.60;;;;;;;;;;6366942;27;19929;-79
2022/02/05 16:30:41;;;;;;;4.35;1.33;;;;;;;;;;6367386;27;20054;-78
2022/02/05 16:33:45;;;;;;;3.55;1.40;;;;;;;;;;6367723;27;20035;-78
2022/02/05 16:36:50;;;;;;;3.55;1.50;;;;;;;;;;6367277;27;20050;-78
2022/02/05 16:39:59;;;;;;;3.60;1.45;;;;;;;;;;6367809;27;20401;-78
2022/02/05 16:43:05;;;;;;;3.67;1.42;;;;;;;;;;6368405;27;20074;-77
2022/02/05 16:46:09;;;;;;;4.05;1.48;;;;;;;;;;6367004;27;20039;-77
2022/02/05 16:49:15;;;;;;;4.43;1.50;;;;;;;;;;6367759;27;20039;-78
2022/02/05 16:52:20;;;;;;;2.70;1.52;;;;;;;;;;6366630;27;20049;-79
2022/02/05 16:55:24;;;;;;;6.03;1.48;;;;;;;;;;6365751;27;20397;-81
2022/02/05 16:58:33;;;;;;;5.18;1.48;;;;;;;;;;6365795;28;20382;-79
2022/02/05 17:01:41;;;;;;;3.40;1.83;;;;;;;;;;6350007;28;20043;-79
2022/02/05 17:04:46;;;;;;;4.22;1.60;;;;;;;;;;6366721;28;20051;-79
2022/02/05 17:07:57;;;;;;;6.35;2.30;;;;;;;;;;6365456;28;20050;-79
2022/02/05 17:11:02;;;;;;;3.05;1.67;;;;;;;;;;6349813;28;20054;-81
2022/02/05 17:14:09;;;;;;;5.07;1.80;;;;;;;;;;6366900;28;20505;-81
2022/02/05 17:17:15;;;;;;;5.80;1.70;;;;;;;;;;6365782;28;20443;-81
2022/02/05 17:20:22;;;;;;;3.72;1.58;;;;;;;;;;6366197;28;20044;-79
2022/02/05 17:23:27;;;;;;;;;;;;;;;;;;6367187;28;20043;-84
2022/02/05 17:26:33;;;;;;;2.47;1.40;;;;;;;;;;6366424;28;19942;-78
2022/02/05 17:29:39;;;;;;;5.63;1.45;;;;;;;;;;6366905;28;20039;-82
2022/02/05 17:32:45;;;;;;;7.00;1.48;;;;;;;;;;6366512;28;20499;-81
2022/02/05 17:35:51;;;;;;;4.60;1.45;;;;;;;;;;6349232;28;20047;-81
2022/02/05 17:38:55;;;;;;;2.78;1.10;;;;;;;;;;6365445;28;20058;-82
2022/02/05 17:41:59;;;;;;;3.28;1.13;;;;;;;;;;6367394;27;20099;-76
2022/02/05 17:45:06;;;;;;;4.72;1.35;;;;;;;;;;6366217;28;20047;-81
2022/02/05 17:48:10;;;;;;;5.38;1.48;;;;;;;;;;6365087;28;20046;-80
2022/02/05 17:51:14;;;;;;;3.70;1.40;;;;;;;;;;6365577;28;20043;-80
2022/02/05 17:54:19;;;;;;;3.28;1.42;;;;;;;;;;6365873;28;20096;-77
2022/02/05 17:57:24;;;;;;;2.80;1.20;;;;;;;;;;6366148;27;20063;-77
2022/02/05 18:00:31;;;;;;;4.10;1.55;;;;;;;;;;6366687;27;20050;-78
2022/02/05 18:03:40;;;;;;;3.53;1.38;;;;;;;;;;6367593;27;20043;-78
2022/02/05 18:06:46;;;;;;;4.63;1.40;;;;;;;;;;6369784;27;20043;-77
2022/02/05 18:10:07;;;;;;;3.63;1.70;;;;;;;;;;6369719;27;20062;-78
2022/02/05 18:13:35;;;;;;;3.47;1.27;;;;;;;;;;6371662;27;20051;-76
2022/02/05 18:16:43;;;;;;;3.72;1.52;;;;;;;;;;6370591;27;20039;-76
2022/02/05 18:19:46;;;;;;;3.77;1.10;;;;;;;;;;6371711;27;20054;-76
2022/02/05 18:22:50;;;;;;;3.10;1.38;;;;;;;;;;6370844;27;20363;-77
2022/02/05 18:25:53;;;;;;;3.08;1.50;;;;;;;;;;6370561;27;20043;-78
2022/02/05 18:28:57;;;;;;;6.00;1.30;;;;;;;;;;6336242;27;20060;-80
2022/02/05 18:32:02;;;;;;;2.85;1.50;;;;;;;;;;6368977;27;20172;-78
2022/02/05 18:35:06;;;;;;;4.60;1.98;;;;;;;;;;6370176;27;20047;-78
2022/02/05 18:38:10;;;;;;;5.97;1.73;;;;;;;;;;6369839;27;20130;-81
2022/02/05 18:41:21;;;;;;;5.03;2.28;;;;;;;;;;6370112;27;20051;-81
2022/02/05 18:44:25;;;;;;;4.97;3.10;;;;;;;;;;6369713;27;20477;-80
2022/02/05 18:47:32;;;;;;;6.57;2.40;;;;;;;;;;6371193;27;20051;-78
2022/02/05 18:50:40;;;;;;;7.55;2.50;;;;;;;;;;6368664;27;20509;-83
2022/02/05 18:53:48;;;;;;;4.43;2.20;;;;;;;;;;6352175;27;20055;-83
2022/02/05 18:56:53;;;;;;;7.90;2.42;;;;;;;;;;6369578;27;20051;-84
2022/02/05 19:00:05;;;;;;;4.93;2.83;;;;;;;;;;6370739;27;20039;-85
2022/02/05 19:03:25;;;;;;;5.32;2.90;;;;;;;;;;6368143;27;20047;-78
2022/02/05 19:10:22;;;;;;;5.00;2.20;;;;;;;;;;6369424;27;20177;-76
2022/02/05 19:13:38;;;;;;;4.78;2.13;;;;;;;;;;6370231;27;20050;-77
2022/02/05 19:20:07;;;;;;;3.97;2.22;;;;;;;;;;6369721;27;20540;-77
2022/02/05 19:23:11;;;;;;;4.70;2.47;;;;;;;;;;6370037;27;20123;-75
2022/02/05 19:26:17;;;;;;;3.83;2.70;;;;;;;;;;6369377;27;20043;-74
2022/02/05 19:29:20;;;;;;;5.57;2.60;;;;;;;;;;6368983;27;20054;-75
2022/02/05 19:32:23;;;;;;;7.20;1.83;;;;;;;;;;6369519;27;20047;-76
2022/02/05 19:35:31;;;;;;;5.18;2.35;;;;;;;;;;6369590;27;20043;-75
2022/02/05 19:38:36;;;;;;;9.20;2.17;;;;;;;;;;6367380;27;20046;-76
2022/02/05 19:41:40;;;;;;;5.70;1.93;;;;;;;;;;6366564;27;20087;-76
2022/02/05 19:44:49;;;;;;;8.20;2.53;;;;;;;;;;6367259;27;20043;-75
2022/02/05 19:47:55;;;;;;;4.75;1.92;;;;;;;;;;6366810;27;20398;-77
2022/02/05 19:51:01;;;;;;;6.50;2.30;;;;;;;;;;6367245;27;20096;-77
2022/02/05 19:54:05;;;;;;;;;;;;;;;;;;6367547;27;20039;-77
2022/02/05 19:57:11;;;;;;;4.82;2.33;;;;;;;;;;6368037;27;19946;-80
2022/02/05 20:00:15;;;;;;;4.15;2.13;;;;;;;;;;6367866;27;20047;-78
2022/02/05 20:03:23;;;;;;;6.20;2.10;;;;;;;;;;6368583;27;20088;-77
2022/02/05 20:06:38;;;;;;;3.83;2.17;;;;;;;;;;6367633;27;20054;-76
2022/02/05 20:09:41;;;;;;;4.97;2.15;;;;;;;;;;6366558;27;20402;-75
2022/02/05 20:12:47;;;;;;;4.95;1.98;;;;;;;;;;6368137;27;20128;-77
2022/02/05 20:15:55;;;;;;;3.95;1.67;;;;;;;;;;6368918;27;20043;-76
2022/02/05 20:18:58;;;;;;;6.53;2.03;;;;;;;;;;6366824;27;20043;-76
2022/02/05 20:22:04;;;;;;;6.65;2.22;;;;;;;;;;6366185;27;20126;-78